Time;durP1;ratioP1;P1;durP2;ratioP2;P2;SDS_P1;SDS_P2;PMS_P1;PMS_P2;Temp;Humidity;BMP_temperature;BMP_pressure;BME280_temperature;BME280_humidity;BME280_pressure;Samples;Min_cycle;Max_cycle;Signal;HPM_P1;HPM_P2
2023/04/02 00:00:39;;;;;;;;;;;;;;;6.34;67.41;101422.44;4989366;28;4896;-79
2023/04/02 00:03:31;;;;;;;;;;;;;;;6.32;67.66;101419.94;4991657;28;4940;-78
2023/04/02 00:06:24;;;;;;;;;;;;;;;6.30;67.61;101429.97;4989700;28;5158;-78
2023/04/02 00:09:16;;;;;;;;;;;;;;;6.29;67.70;101435.47;4988670;28;4977;-77
2023/04/02 00:12:09;;;;;;;;;;;;;;;6.26;67.55;101431.28;4987800;28;5152;-78
2023/04/02 00:15:01;;;;;;;;;;;;;;;6.25;67.55;101439.50;4986678;28;4795;-78
2023/04/02 00:17:53;;;;;;;;;;;;;;;6.24;67.78;101449.38;4988854;28;4917;-78
2023/04/02 00:20:45;;;;;;;;;;;;;;;6.22;67.58;101446.03;4987926;28;4926;-78
2023/04/02 00:23:37;;;;;;;;;;;;;;;6.20;67.53;101447.19;4987265;28;5028;-78
2023/04/02 00:26:29;;;;;;;;;;;;;;;6.18;67.58;101452.72;4987438;28;4969;-77
2023/04/02 00:29:21;;;;;;;;;;;;;;;6.17;67.71;101458.22;4987550;28;4740;-79
2023/04/02 00:32:13;;;;;;;;;;;;;;;6.16;67.65;101459.25;4987975;28;4908;-78
2023/04/02 00:35:05;;;;;;;;;;;;;;;6.12;67.48;101459.59;4988777;28;4960;-77
2023/04/02 00:37:56;;;;;;;;;;;;;;;6.11;67.61;101475.78;4988193;28;4940;-77
2023/04/02 00:40:48;;;;;;;;;;;;;;;6.09;67.65;101475.97;4987631;28;4965;-79
2023/04/02 00:43:43;;;;;;;;;;;;;;;6.08;67.34;101478.78;4988758;28;4814;-77
2023/04/02 00:46:35;;;;;;;;;;;;;;;6.05;67.36;101488.00;4984986;28;5016;-78
2023/04/02 00:49:27;;;;;;;;;;;;;;;6.05;67.46;101484.47;4988254;28;5067;-78
2023/04/02 00:52:17;;;;;;;;;;;;;;;6.03;67.66;101489.16;4986610;28;5055;-77
2023/04/02 00:55:10;;;;;;;;;;;;;;;6.01;67.57;101494.69;4987795;28;4846;-80
2023/04/02 00:58:02;;;;;;;;;;;;;;;5.99;67.54;101493.19;4988248;28;5014;-78
2023/04/02 01:00:54;;;;;;;;;;;;;;;5.98;67.38;101499.53;4986586;28;4875;-78
2023/04/02 01:03:46;;;;;;;;;;;;;;;5.96;67.53;101499.69;4988373;28;4922;-78
2023/04/02 01:06:38;;;;;;;;;;;;;;;5.95;67.53;101502.53;4988807;28;4921;-77
2023/04/02 01:09:30;;;;;;;;;;;;;;;5.93;67.57;101505.38;4988842;28;4966;-78
2023/04/02 01:12:22;;;;;;;;;;;;;;;5.90;67.72;101513.69;4986501;28;4968;-78
2023/04/02 01:15:14;;;;;;;;;;;;;;;5.89;67.44;101520.88;4987470;28;4908;-78
2023/04/02 01:18:06;;;;;;;;;;;;;;;5.86;67.47;101531.91;4985766;28;4776;-78
2023/04/02 01:20:58;;;;;;;;;;;;;;;5.85;67.27;101526.72;4986248;28;4976;-78
2023/04/02 01:23:51;;;;;;;;;;;;;;;5.85;67.47;101529.38;4989021;28;4958;-78
2023/04/02 01:26:45;;;;;;;;;;;;;;;5.82;67.50;101530.56;4987736;28;4961;-78
2023/04/02 01:29:37;;;;;;;;;;;;;;;5.80;67.23;101537.91;4987718;28;4989;-77
2023/04/02 01:32:28;;;;;;;;;;;;;;;5.78;67.41;101547.94;4984772;28;4950;-78
2023/04/02 01:35:20;;;;;;;;;;;;;;;5.77;67.50;101540.09;4987745;28;4980;-78
2023/04/02 01:38:12;;;;;;;;;;;;;;;5.75;67.50;101550.09;4984896;28;5055;-78
2023/04/02 01:41:04;;;;;;;;;;;;;;;5.73;67.48;101550.25;4985306;28;4691;-79
2023/04/02 01:43:55;;;;;;;;;;;;;;;5.73;67.19;101554.75;4987021;28;4925;-78
2023/04/02 01:46:47;;;;;;;;;;;;;;;5.70;67.43;101561.28;4984285;28;5003;-78
2023/04/02 01:49:39;;;;;;;;;;;;;;;5.69;67.16;101567.63;4987993;28;5059;-78
2023/04/02 01:52:31;;;;;;;;;;;;;;;5.68;67.49;101565.97;4986935;28;5025;-78
2023/04/02 01:55:23;;;;;;;;;;;;;;;5.65;67.26;101561.78;4986538;28;5060;-77
2023/04/02 01:58:15;;;;;;;;;;;;;;;5.63;67.38;101568.28;4987444;28;5151;-78
2023/04/02 02:01:06;;;;;;;;;;;;;;;5.61;67.21;101567.59;4986090;28;4937;-78
2023/04/02 02:03:58;;;;;;;;;;;;;;;5.59;67.10;101567.78;4985204;28;4985;-77
2023/04/02 02:06:50;;;;;;;;;;;;;;;5.59;67.35;101573.13;4985462;28;4945;-77
2023/04/02 02:09:41;;;;;;;;;;;;;;;5.57;67.12;101575.09;4985071;28;4937;-78
2023/04/02 02:12:33;;;;;;;;;;;;;;;5.56;67.18;101578.78;4985520;28;4615;-78
2023/04/02 02:15:25;;;;;;;;;;;;;;;5.53;67.22;101579.13;4986025;28;4996;-78
2023/04/02 02:18:17;;;;;;;;;;;;;;;5.50;67.22;101578.56;4987999;28;4984;-79
2023/04/02 02:21:08;;;;;;;;;;;;;;;5.49;67.40;101583.09;4988294;28;4917;-78
2023/04/02 02:24:00;;;;;;;;;;;;;;;5.50;67.38;101589.25;4987708;28;5090;-78
2023/04/02 02:26:52;;;;;;;;;;;;;;;5.45;67.26;101595.94;4984844;28;4916;-77
2023/04/02 02:29:44;;;;;;;;;;;;;;;5.44;67.31;101601.44;4985491;28;5007;-77
2023/04/02 02:32:36;;;;;;;;;;;;;;;5.43;67.17;101600.59;4985198;28;6854;-78
2023/04/02 02:35:27;;;;;;;;;;;;;;;5.41;67.10;101607.97;4984820;28;4925;-77
2023/04/02 02:38:19;;;;;;;;;;;;;;;5.41;67.16;101613.31;4987312;28;4946;-78
2023/04/02 02:41:11;;;;;;;;;;;;;;;5.38;67.15;101618.09;4982485;28;7129;-78
2023/04/02 02:44:03;;;;;;;;;;;;;;;5.36;67.04;101618.28;4984258;28;5153;-79
2023/04/02 02:46:55;;;;;;;;;;;;;;;5.36;67.15;101620.13;4984386;28;4942;-77
2023/04/02 02:49:48;;;;;;;;;;;;;;;5.33;67.10;101626.63;4986692;28;4949;-78
2023/04/02 02:52:40;;;;;;;;;;;;;;;5.32;66.99;101624.91;4984851;28;4913;-78
2023/04/02 02:55:31;;;;;;;;;;;;;;;5.32;67.24;101624.09;4983312;28;4879;-78
2023/04/02 02:58:25;;;;;;;;;;;;;;;5.29;67.10;101633.25;4985504;28;5004;-78
2023/04/02 03:01:17;;;;;;;;;;;;;;;5.28;67.11;101636.94;4984633;28;4763;-78
2023/04/02 03:04:09;;;;;;;;;;;;;;;5.26;67.01;101644.25;4985631;28;4721;-78
2023/04/02 03:07:01;;;;;;;;;;;;;;;5.23;67.13;101641.91;4987231;28;5024;-78
2023/04/02 03:09:52;;;;;;;;;;;;;;;5.23;67.07;101652.59;4984257;28;4894;-77
2023/04/02 03:12:44;;;;;;;;;;;;;;;5.21;67.09;101654.59;4985283;28;4925;-77
2023/04/02 03:15:36;;;;;;;;;;;;;;;5.20;67.02;101655.56;4984954;28;4961;-77
2023/04/02 03:18:27;;;;;;;;;;;;;;;5.19;66.98;101664.59;4988718;28;5107;-78
2023/04/02 03:21:19;;;;;;;;;;;;;;;5.17;67.01;101666.56;4987838;28;5068;-78
2023/04/02 03:24:11;;;;;;;;;;;;;;;5.15;67.04;101671.25;4988295;28;5173;-78
2023/04/02 03:27:03;;;;;;;;;;;;;;;5.14;67.04;101681.06;4988786;28;5120;-78
2023/04/02 03:29:55;;;;;;;;;;;;;;;5.12;67.44;101687.59;4987398;28;5044;-78
2023/04/02 03:32:47;;;;;;;;;;;;;;;5.11;67.10;101692.06;4986141;28;5270;-78
2023/04/02 03:35:39;;;;;;;;;;;;;;;5.07;67.10;101690.72;4990305;28;4749;-78
2023/04/02 03:38:31;;;;;;;;;;;;;;;5.05;66.99;101692.69;4990332;28;5071;-78
2023/04/02 03:41:23;;;;;;;;;;;;;;;5.05;66.93;101691.88;4988718;28;5159;-78
2023/04/02 03:44:17;;;;;;;;;;;;;;;5.03;67.05;101697.38;4988028;28;5094;-79
2023/04/02 03:47:09;;;;;;;;;;;;;;;5.04;67.03;101706.22;4989483;28;5167;-79
2023/04/02 03:50:00;;;;;;;;;;;;;;;5.00;67.07;101700.34;4990645;28;4964;-78
2023/04/02 03:52:51;;;;;;;;;;;;;;;4.98;67.16;101710.34;4991796;28;5008;-78
2023/04/02 03:55:43;;;;;;;;;;;;;;;4.97;67.04;101705.97;4991574;28;5084;-78
2023/04/02 03:58:35;;;;;;;;;;;;;;;4.94;66.88;101706.28;4990290;28;5048;-78
2023/04/02 04:01:27;;;;;;;;;;;;;;;4.93;66.87;101717.97;4987706;28;5012;-78
2023/04/02 04:04:19;;;;;;;;;;;;;;;4.94;66.96;101722.31;4989683;28;5067;-77
2023/04/02 04:07:11;;;;;;;;;;;;;;;4.93;66.91;101725.97;4988719;28;5095;-75
2023/04/02 04:10:03;;;;;;;;;;;;;;;4.89;66.99;101733.47;4988625;28;5096;-77
2023/04/02 04:12:54;;;;;;;;;;;;;;;4.88;66.70;101736.28;4985837;28;5028;-78
2023/04/02 04:15:46;;;;;;;;;;;;;;;4.86;66.94;101740.94;4987282;28;4687;-78
2023/04/02 04:18:38;;;;;;;;;;;;;;;4.85;66.92;101745.41;4987937;28;6858;-79
2023/04/02 04:21:36;;;;;;;;;;;;;;;4.86;66.92;101752.47;4989629;28;4880;-79
2023/04/02 04:24:28;;;;;;;;;;;;;;;4.82;66.76;101752.91;4989459;28;4772;-77
2023/04/02 04:27:20;;;;;;;;;;;;;;;4.80;66.90;101749.56;4989596;28;4855;-77
2023/04/02 04:30:13;;;;;;;;;;;;;;;4.78;67.03;101763.06;4989494;28;4816;-78
2023/04/02 04:33:05;;;;;;;;;;;;;;;4.77;66.91;101761.38;4978530;28;4757;-79
2023/04/02 04:35:56;;;;;;;;;;;;;;;4.76;66.78;101768.56;4969465;28;3708;-78
2023/04/02 04:38:54;;;;;;;;;;;;;;;4.74;66.78;101773.19;4970929;28;4705;-79
2023/04/02 04:41:45;;;;;;;;;;;;;;;4.73;66.91;101779.50;4965241;28;4487;-77
2023/04/02 04:44:37;;;;;;;;;;;;;;;4.73;66.84;101778.69;4958902;28;4660;-76
2023/04/02 04:47:29;;;;;;;;;;;;;;;4.71;66.77;101786.84;4970450;28;4775;-78
2023/04/02 04:50:21;;;;;;;;;;;;;;;4.71;66.85;101788.69;4975632;28;4989;-79
2023/04/02 04:53:13;;;;;;;;;;;;;;;4.69;66.74;101791.50;4980232;28;4531;-78
2023/04/02 04:56:06;;;;;;;;;;;;;;;4.69;66.60;101796.00;4983125;28;5124;-78
2023/04/02 04:58:57;;;;;;;;;;;;;;;4.67;66.76;101797.97;4968542;28;6451;-78
2023/04/02 05:01:48;;;;;;;;;;;;;;;4.67;66.67;101805.97;4973433;28;4699;-78
2023/04/02 05:04:40;;;;;;;;;;;;;;;4.65;66.75;101807.97;4968979;28;4621;-78
2023/04/02 05:07:32;;;;;;;;;;;;;;;4.65;66.65;101811.47;4967232;28;4632;-78
2023/04/02 05:10:24;;;;;;;;;;;;;;;4.63;66.57;101805.44;4979012;28;4621;-78
2023/04/02 05:13:16;;;;;;;;;;;;;;;4.63;66.60;101824.13;4967454;28;4794;-78
2023/04/02 05:16:08;;;;;;;;;;;;;;;4.63;66.63;101832.13;4964934;28;4545;-79
2023/04/02 05:19:00;;;;;;;;;;;;;;;4.62;66.29;101826.91;4971170;28;4513;-77
2023/04/02 05:21:52;;;;;;;;;;;;;;;4.61;66.49;101841.25;4986006;28;4926;-78
2023/04/02 05:24:44;;;;;;;;;;;;;;;4.59;66.56;101841.44;4986815;28;4857;-77
2023/04/02 05:27:36;;;;;;;;;;;;;;;4.60;66.43;101842.25;4984417;28;4565;-78
2023/04/02 05:30:28;;;;;;;;;;;;;;;4.58;66.37;101853.06;4971941;28;4795;-78
2023/04/02 05:33:19;;;;;;;;;;;;;;;4.59;66.26;101852.09;4969632;28;4674;-77
2023/04/02 05:36:11;;;;;;;;;;;;;;;4.63;66.14;101863.31;4980661;28;4886;-77
2023/04/02 05:39:03;;;;;;;;;;;;;;;4.59;66.15;101864.56;4978154;28;4877;-77
2023/04/02 05:41:55;;;;;;;;;;;;;;;4.58;66.42;101870.91;4986412;28;4836;-78
2023/04/02 05:44:47;;;;;;;;;;;;;;;4.57;66.30;101869.25;4985912;28;4699;-78
2023/04/02 05:47:41;;;;;;;;;;;;;;;4.57;66.20;101883.41;4988426;28;4788;-76
2023/04/02 05:50:32;;;;;;;;;;;;;;;4.56;66.15;101887.09;4987839;28;5240;-79
2023/04/02 05:53:24;;;;;;;;;;;;;;;4.55;66.22;101894.22;4985769;28;4930;-77
2023/04/02 05:56:16;;;;;;;;;;;;;;;4.54;66.12;101891.72;4986521;28;5062;-77
2023/04/02 05:59:09;;;;;;;;;;;;;;;4.56;66.20;101908.44;4986667;28;4865;-76
2023/04/02 06:02:02;;;;;;;;;;;;;;;4.55;66.31;101909.41;4970467;28;4917;-78
2023/04/02 06:04:54;;;;;;;;;;;;;;;4.54;65.93;101916.56;4969203;28;4925;-76
2023/04/02 06:07:46;;;;;;;;;;;;;;;4.53;66.08;101914.91;4969353;28;4747;-79
2023/04/02 06:10:38;;;;;;;;;;;;;;;3.96;66.04;101833.28;4973681;28;4540;-79
2023/04/02 06:13:30;;;;;;;;;;;;;;;4.53;65.96;101920.25;4980206;28;4716;-77
2023/04/02 06:16:22;;;;;;;;;;;;;;;4.53;66.11;101920.25;4972279;28;4231;-79
2023/04/02 06:19:14;;;;;;;;;;;;;;;4.52;66.16;101923.88;4971147;28;4622;-78
2023/04/02 06:22:06;;;;;;;;;;;;;;;4.53;65.93;101932.75;4972992;28;4814;-78
2023/04/02 06:24:59;;;;;;;;;;;;;;;4.52;66.13;101928.38;4971813;28;4753;-75
2023/04/02 06:27:51;;;;;;;;;;;;;;;4.53;66.01;101943.41;4976892;28;4590;-77
2023/04/02 06:30:43;;;;;;;;;;;;;;;4.52;65.97;101942.56;4966833;28;4454;-78
2023/04/02 06:33:35;;;;;;;;;;;;;;;4.51;65.98;101945.38;4971176;28;4651;-78
2023/04/02 06:36:27;;;;;;;;;;;;;;;4.52;65.90;101944.38;4971969;28;4563;-79
2023/04/02 06:39:18;;;;;;;;;;;;;;;4.52;65.86;101955.91;4974525;28;4551;-79
2023/04/02 06:42:10;;;;;;;;;;;;;;;4.54;65.62;101955.75;4970818;28;4247;-78
2023/04/02 06:45:01;;;;;;;;;;;;;;;4.56;65.62;101959.13;4968920;28;4217;-79
2023/04/02 06:47:53;;;;;;;;;;;;;;;4.54;65.75;101969.94;4970131;28;4682;-79
2023/04/02 06:50:45;;;;;;;;;;;;;;;4.57;65.43;101975.97;4975810;28;4585;-77
2023/04/02 06:53:37;;;;;;;;;;;;;;;4.54;65.62;101977.09;4981365;28;4722;-79
2023/04/02 06:56:30;;;;;;;;;;;;;;;4.56;65.53;101977.81;4969689;28;4453;-79
2023/04/02 06:59:22;;;;;;;;;;;;;;;4.56;65.58;101985.81;4974393;28;4733;-79
2023/04/02 07:02:14;;;;;;;;;;;;;;;4.57;65.51;101989.31;5001915;23;4734;-79
2023/04/02 07:05:07;;;;;;;;;;;;;;;4.57;65.72;101990.16;4984571;28;4682;-80
2023/04/02 07:07:59;;;;;;;;;;;;;;;4.57;65.43;101992.81;4995675;28;4489;-77
2023/04/02 07:10:52;;;;;;;;;;;;;;;4.57;65.49;101987.50;4996799;28;4524;-76
2023/04/02 07:13:46;;;;;;;;;;;;;;;4.58;65.40;101996.34;4999887;28;4799;-78
2023/04/02 07:16:38;;;;;;;;;;;;;;;4.58;65.43;101996.34;4995673;28;4557;-79
2023/04/02 07:19:30;;;;;;;;;;;;;;;4.58;65.38;102005.19;4997248;28;4469;-76
2023/04/02 07:22:22;;;;;;;;;;;;;;;4.63;64.96;102008.25;4995513;28;4466;-77
2023/04/02 07:25:14;;;;;;;;;;;;;;;4.61;65.31;102007.56;4995099;28;4647;-80
2023/04/02 07:28:06;;;;;;;;;;;;;;;4.63;65.12;102015.44;5005200;28;4518;-79
2023/04/02 07:30:58;;;;;;;;;;;;;;;4.64;65.34;102017.09;4999976;28;4744;-77
2023/04/02 07:33:50;;;;;;;;;;;;;;;4.63;65.29;102024.28;4999217;28;4805;-77
2023/04/02 07:36:42;;;;;;;;;;;;;;;4.65;65.26;102024.13;5003102;28;4015;-77
2023/04/02 07:39:34;;;;;;;;;;;;;;;4.65;65.20;102035.66;4996974;28;4406;-76
2023/04/02 07:42:29;;;;;;;;;;;;;;;4.69;64.96;102030.84;4999913;28;4221;-79
2023/04/02 07:45:20;;;;;;;;;;;;;;;4.69;65.29;102038.88;4997101;28;4410;-76
2023/04/02 07:48:12;;;;;;;;;;;;;;;4.69;65.12;102045.03;4997900;28;4662;-80
2023/04/02 07:51:03;;;;;;;;;;;;;;;4.70;64.97;102051.22;4994109;28;4700;-77
2023/04/02 07:53:55;;;;;;;;;;;;;;;4.70;64.90;102051.22;4998686;28;4628;-78
2023/04/02 07:56:47;;;;;;;;;;;;;;;4.71;65.19;102058.25;4995615;28;4453;-77
2023/04/02 07:59:39;;;;;;;;;;;;;;;4.70;65.28;102062.72;4992470;28;4501;-77
2023/04/02 08:02:31;;;;;;;;;;;;;;;4.74;65.02;102069.47;5000719;28;4825;-77
2023/04/02 08:05:23;;;;;;;;;;;;;;;4.77;64.91;102071.03;4988403;28;4994;-77
2023/04/02 08:08:16;;;;;;;;;;;;;;;4.74;65.11;102069.47;4977536;28;4849;-78
2023/04/02 08:11:07;;;;;;;;;;;;;;;4.77;65.06;102076.34;4972275;28;4393;-77
2023/04/02 08:13:59;;;;;;;;;;;;;;;4.79;65.17;102077.03;4972642;28;4904;-77
2023/04/02 08:16:51;;;;;;;;;;;;;;;4.78;65.09;102067.34;4977094;28;4681;-78
2023/04/02 08:19:43;;;;;;;;;;;;;;;4.81;64.91;102071.56;4976313;28;4800;-77
2023/04/02 08:22:35;;;;;;;;;;;;;;;4.85;64.70;102078.28;4982149;28;4263;-77
2023/04/02 08:25:27;;;;;;;;;;;;;;;4.82;64.95;102086.59;4982610;28;4714;-75
2023/04/02 08:28:19;;;;;;;;;;;;;;;4.86;64.88;102088.84;4987196;28;4881;-77
2023/04/02 08:31:12;;;;;;;;;;;;;;;4.85;65.01;102094.31;4982178;28;4739;-78
2023/04/02 08:34:03;;;;;;;;;;;;;;;4.88;65.01;102102.03;4985405;28;4855;-77
2023/04/02 08:36:55;;;;;;;;;;;;;;;4.91;64.88;102104.41;4990956;28;5012;-79
2023/04/02 08:39:47;;;;;;;;;;;;;;;4.91;64.99;102107.94;4981270;28;4873;-75
2023/04/02 08:42:39;;;;;;;;;;;;;;;4.94;64.80;102104.97;4981600;28;4796;-78
2023/04/02 08:45:31;;;;;;;;;;;;;;;4.93;64.83;102111.28;4968644;28;4775;-76
2023/04/02 08:48:24;;;;;;;;;;;;;;;4.96;65.02;102112.81;4977822;28;4670;-75
2023/04/02 08:51:16;;;;;;;;;;;;;;;5.00;64.72;102111.56;4974433;28;4741;-77
2023/04/02 08:54:08;;;;;;;;;;;;;;;4.99;64.77;102118.72;4970465;28;4689;-77
2023/04/02 08:57:00;;;;;;;;;;;;;;;5.05;64.70;102113.78;4981600;28;4897;-77
2023/04/02 08:59:51;;;;;;;;;;;;;;;5.04;64.77;102126.31;4975078;28;4814;-77
2023/04/02 09:02:44;;;;;;;;;;;;;;;5.10;64.64;102128.41;4983880;28;5024;-77
2023/04/02 09:05:36;;;;;;;;;;;;;;;5.11;64.68;102129.22;4988592;28;4976;-78
2023/04/02 09:08:28;;;;;;;;;;;;;;;5.07;64.82;102126.00;4991326;28;5011;-78
2023/04/02 09:11:20;;;;;;;;;;;;;;;5.09;64.81;102140.06;4986342;28;4863;-77
2023/04/02 09:14:12;;;;;;;;;;;;;;;5.14;64.68;102136.94;4980811;28;4725;-77
2023/04/02 09:17:04;;;;;;;;;;;;;;;5.11;64.86;102142.59;4984363;28;5007;-77
2023/04/02 09:19:56;;;;;;;;;;;;;;;5.14;65.00;102148.47;4983389;28;4934;-79
2023/04/02 09:22:49;;;;;;;;;;;;;;;5.14;64.94;102148.47;4980800;28;4793;-80
2023/04/02 09:25:41;;;;;;;;;;;;;;;5.14;64.87;102144.97;4982821;28;4877;-76
2023/04/02 09:28:32;;;;;;;;;;;;;;;5.19;64.79;102146.22;4981179;28;4795;-77
2023/04/02 09:31:24;;;;;;;;;;;;;;;5.18;64.77;102147.22;4982167;28;4823;-76
2023/04/02 09:34:16;;;;;;;;;;;;;;;5.17;64.95;102147.34;4986362;28;4911;-76
2023/04/02 09:37:08;;;;;;;;;;;;;;;5.21;64.82;102148.75;4986854;28;4936;-76
2023/04/02 09:40:00;;;;;;;;;;;;;;;5.28;64.81;102155.19;4986150;28;5332;-78
2023/04/02 09:42:52;;;;;;;;;;;;;;;5.30;64.85;102153.22;4981603;28;5196;-77
2023/04/02 09:45:44;;;;;;;;;;;;;;;5.32;64.63;102155.72;4984678;28;4971;-77
2023/04/02 09:48:37;;;;;;;;;;;;;;;5.28;64.91;102157.84;4985466;28;4645;-76
2023/04/02 09:51:30;;;;;;;;;;;;;;;5.29;64.90;102167.53;4984265;28;4890;-76
2023/04/02 09:54:22;;;;;;;;;;;;;;;5.39;64.49;102168.38;4981431;28;4730;-77
2023/04/02 09:57:14;;;;;;;;;;;;;;;5.37;64.88;102169.50;4984474;28;4811;-76
2023/04/02 10:00:06;;;;;;;;;;;;;;;5.34;64.97;102173.31;4986555;28;4808;-76
2023/04/02 10:02:58;;;;;;;;;;;;;;;5.33;65.25;102179.66;4986144;28;4633;-78
2023/04/02 10:05:49;;;;;;;;;;;;;;;5.35;65.18;102180.31;4984768;28;4599;-77
2023/04/02 10:08:41;;;;;;;;;;;;;;;5.38;65.11;102176.50;4982210;28;4965;-79
2023/04/02 10:11:33;;;;;;;;;;;;;;;5.38;65.17;102177.38;4984996;28;5262;-77
2023/04/02 10:14:25;;;;;;;;;;;;;;;5.41;65.10;102179.75;4994972;23;5365;-78
2023/04/02 10:17:17;;;;;;;;;;;;;;;5.45;65.11;102174.97;4980323;28;4952;-79
2023/04/02 10:20:10;;;;;;;;;;;;;;;5.49;64.99;102181.69;4986011;28;5321;-78
2023/04/02 10:23:02;;;;;;;;;;;;;;;5.49;65.13;102183.53;4978687;28;4873;-77
2023/04/02 10:25:54;;;;;;;;;;;;;;;5.48;65.16;102182.69;4980441;28;5509;-76
2023/04/02 10:28:46;;;;;;;;;;;;;;;5.51;65.26;102193.09;4983171;28;4856;-77
2023/04/02 10:31:40;;;;;;;;;;;;;;;5.53;65.25;102191.13;4980735;28;5014;-77
2023/04/02 10:34:31;;;;;;;;;;;;;;;5.55;65.22;102199.81;4986544;28;4922;-76
2023/04/02 10:37:23;;;;;;;;;;;;;;;5.56;65.21;102206.00;4987408;28;4936;-78
2023/04/02 10:40:15;;;;;;;;;;;;;;;5.59;65.22;102197.66;4984352;28;5041;-78
2023/04/02 10:43:07;;;;;;;;;;;;;;;5.59;65.26;102203.88;5053492;23;4874;-78
2023/04/02 10:45:59;;;;;;;;;;;;;;;5.59;65.43;102203.88;5034787;28;4756;-78
2023/04/02 10:48:51;;;;;;;;;;;;;;;5.60;65.33;102204.72;5033817;28;4893;-76
2023/04/02 10:51:44;;;;;;;;;;;;;;;5.63;65.26;102207.94;5030959;28;4628;-78
2023/04/02 10:54:36;;;;;;;;;;;;;;;5.65;65.22;102205.97;5032550;28;4574;-77
2023/04/02 10:57:28;;;;;;;;;;;;;;;5.67;65.31;102206.66;5029792;28;4550;-75
2023/04/02 11:00:20;;;;;;;;;;;;;;;5.69;65.29;102206.50;5028787;28;4622;-77
2023/04/02 11:03:12;;;;;;;;;;;;;;;5.72;65.29;102213.41;5034847;28;4764;-77
2023/04/02 11:06:04;;;;;;;;;;;;;;;5.73;65.32;102215.06;5030941;28;4974;-77
2023/04/02 11:08:56;;;;;;;;;;;;;;;5.75;65.34;102223.81;5032797;28;4923;-76
2023/04/02 11:11:48;;;;;;;;;;;;;;;5.78;65.31;102223.50;5030564;28;4764;-78
2023/04/02 11:14:40;;;;;;;;;;;;;;;5.79;65.48;102225.19;5030045;28;4444;-78
2023/04/02 11:17:32;;;;;;;;;;;;;;;5.79;65.58;102228.69;5009923;28;5190;-77
2023/04/02 11:20:24;;;;;;;;;;;;;;;5.80;65.44;102229.56;5006373;28;5566;-76
2023/04/02 11:23:16;;;;;;;;;;;;;;;5.83;65.59;102224.75;5005764;28;5096;-76
2023/04/02 11:26:07;;;;;;;;;;;;;;;5.86;65.40;102226.28;5002005;28;4857;-77
2023/04/02 11:28:59;;;;;;;;;;;;;;;5.86;65.69;102232.47;5001535;28;4718;-78
2023/04/02 11:31:51;;;;;;;;;;;;;;;5.89;65.61;102217.97;5009306;28;5029;-77
2023/04/02 11:34:43;;;;;;;;;;;;;;;5.89;65.48;102218.81;5009296;28;5254;-77
2023/04/02 11:37:34;;;;;;;;;;;;;;;5.92;65.65;102221.19;5000064;28;4870;-77
2023/04/02 11:40:26;;;;;;;;;;;;;;;5.94;65.58;102226.41;5007950;28;4776;-77
2023/04/02 11:43:18;;;;;;;;;;;;;;;5.97;65.76;102230.59;5003967;28;5135;-78
2023/04/02 11:46:10;;;;;;;;;;;;;;;6.00;65.67;102230.31;4994806;28;4771;-77
2023/04/02 11:49:02;;;;;;;;;;;;;;;6.01;65.64;102242.72;4998744;28;4827;-76
2023/04/02 11:51:54;;;;;;;;;;;;;;;6.02;65.57;102239.03;4990727;28;4701;-77
2023/04/02 11:54:46;;;;;;;;;;;;;;;6.05;65.86;102239.56;4989213;28;4456;-76
2023/04/02 11:57:38;;;;;;;;;;;;;;;6.04;65.75;102243.25;4987928;28;4836;-76
2023/04/02 12:00:29;;;;;;;;;;;;;;;6.07;65.98;102242.13;4990930;28;4701;-76
2023/04/02 12:03:21;;;;;;;;;;;;;;;6.08;65.96;102241.94;4994944;28;4864;-77
2023/04/02 12:06:15;;;;;;;;;;;;;;;6.10;65.81;102241.81;4996528;28;4669;-78
2023/04/02 12:09:06;;;;;;;;;;;;;;;6.11;65.91;102240.81;4996847;28;4825;-75
2023/04/02 12:11:58;;;;;;;;;;;;;;;6.14;65.91;102245.88;4996377;28;4614;-77
2023/04/02 12:14:50;;;;;;;;;;;;;;;6.17;65.90;102242.91;4998416;28;4689;-78
2023/04/02 12:17:41;;;;;;;;;;;;;;;6.19;66.12;102240.09;4998237;28;4697;-77
2023/04/02 12:20:33;;;;;;;;;;;;;;;6.19;66.02;102246.28;4997538;28;4340;-76
2023/04/02 12:23:25;;;;;;;;;;;;;;;6.21;66.01;102236.28;4995955;28;4701;-78
2023/04/02 12:26:17;;;;;;;;;;;;;;;6.24;66.08;102248.50;4995593;28;4493;-78
2023/04/02 12:29:09;;;;;;;;;;;;;;;6.26;66.08;102251.84;4998447;28;4258;-77
2023/04/02 12:32:02;;;;;;;;;;;;;;;6.26;66.35;102250.00;4995309;28;4657;-79
2023/04/02 12:34:54;;;;;;;;;;;;;;;6.29;66.31;102247.03;4993462;28;4538;-78
2023/04/02 12:37:46;;;;;;;;;;;;;;;6.33;66.18;102255.63;4993430;28;4689;-77
2023/04/02 12:40:38;;;;;;;;;;;;;;;6.32;66.20;102252.13;4993598;28;4354;-77
2023/04/02 12:43:29;;;;;;;;;;;;;;;6.35;66.33;102257.16;4995374;28;4705;-78
2023/04/02 12:46:23;;;;;;;;;;;;;;;6.37;66.22;102249.81;4998230;28;4620;-76
2023/04/02 12:49:15;;;;;;;;;;;;;;;6.39;66.64;102255.03;4999196;28;4746;-76
2023/04/02 12:52:06;;;;;;;;;;;;;;;6.43;66.36;102255.56;5003348;28;5003;-77
2023/04/02 12:54:58;;;;;;;;;;;;;;;6.45;66.28;102249.06;5003410;28;4954;-77
2023/04/02 12:57:50;;;;;;;;;;;;;;;6.46;66.57;102248.06;5006570;28;4910;-77
2023/04/02 13:00:45;;;;;;;;;;;;;;;6.48;66.32;102251.44;4997777;28;4769;-76
2023/04/02 13:03:37;;;;;;;;;;;;;;;6.51;66.33;102258.34;4993475;28;4631;-76
2023/04/02 13:06:30;;;;;;;;;;;;;;;6.52;66.54;102249.31;4993678;28;3800;-77
2023/04/02 13:09:22;;;;;;;;;;;;;;;6.56;66.14;102250.69;5001518;28;5009;-76
2023/04/02 13:12:14;;;;;;;;;;;;;;;6.56;66.48;102250.69;4996239;28;4591;-77
2023/04/02 13:15:06;;;;;;;;;;;;;;;6.59;66.50;102253.06;5001226;28;4678;-76
2023/04/02 13:17:58;;;;;;;;;;;;;;;6.60;66.50;102250.22;4998421;28;4820;-76
2023/04/02 13:20:50;;;;;;;;;;;;;;;6.70;66.15;102260.84;5002396;28;4818;-76
2023/04/02 13:23:42;;;;;;;;;;;;;;;6.71;66.12;102264.41;5005873;28;4960;-76
2023/04/02 13:26:37;;;;;;;;;;;;;;;6.80;65.94;102258.13;4998560;28;4680;-76
2023/04/02 13:29:29;;;;;;;;;;;;;;;6.86;65.74;102254.00;4998158;28;4672;-76
2023/04/02 13:32:21;;;;;;;;;;;;;;;6.86;66.07;102262.88;4996754;28;4782;-77
2023/04/02 13:35:12;;;;;;;;;;;;;;;6.85;66.18;102258.47;4994038;28;4618;-76
2023/04/02 13:38:04;;;;;;;;;;;;;;;7.06;65.58;102260.88;4994240;28;4500;-76
2023/04/02 13:41:00;;;;;;;;;;;;;;;7.09;65.63;102260.56;4999353;28;4682;-76
2023/04/02 13:43:52;;;;;;;;;;;;;;;7.09;65.52;102263.22;4992802;28;4448;-78
2023/04/02 13:46:43;;;;;;;;;;;;;;;7.17;65.30;102265.94;4995697;28;4599;-76
2023/04/02 13:49:35;;;;;;;;;;;;;;;7.14;65.42;102257.38;4993230;28;4397;-77
2023/04/02 13:52:27;;;;;;;;;;;;;;;7.20;65.32;102262.97;4994561;28;4590;-78
2023/04/02 13:55:19;;;;;;;;;;;;;;;7.08;66.02;102261.53;4996961;28;3727;-79
2023/04/02 13:58:11;;;;;;;;;;;;;;;7.12;65.99;102251.34;5000622;28;4682;-76
2023/04/02 14:01:03;;;;;;;;;;;;;;;7.19;65.73;102255.94;4996379;28;4263;-76
2023/04/02 14:03:56;;;;;;;;;;;;;;;7.14;66.14;102260.06;4997425;28;4547;-76
2023/04/02 14:06:51;;;;;;;;;;;;;;;7.13;66.23;102258.41;4997274;28;4445;-77
2023/04/02 14:09:42;;;;;;;;;;;;;;;7.21;65.68;102261.97;5002065;28;4636;-77
2023/04/02 14:12:34;;;;;;;;;;;;;;;7.28;65.95;102264.88;5004519;28;4425;-80
2023/04/02 14:15:26;;;;;;;;;;;;;;;7.20;66.44;102262.13;4995562;28;3819;-76
2023/04/02 14:18:18;;;;;;;;;;;;;;;7.18;66.48;102261.47;4997920;28;4804;-76
2023/04/02 14:21:12;;;;;;;;;;;;;;;7.17;66.69;102259.75;5001880;28;4644;-76
2023/04/02 14:24:03;;;;;;;;;;;;;;;7.24;66.59;102261.66;5001219;28;4736;-77
2023/04/02 14:26:55;;;;;;;;;;;;;;;7.20;66.82;102262.97;5002772;28;4477;-76
2023/04/02 14:29:46;;;;;;;;;;;;;;;7.20;66.85;102262.13;5002968;28;3858;-77
2023/04/02 14:32:37;;;;;;;;;;;;;;;7.31;66.71;102259.19;5001876;28;4614;-77
2023/04/02 14:35:29;;;;;;;;;;;;;;;7.31;66.59;102263.72;4999673;28;4472;-76
2023/04/02 14:38:20;;;;;;;;;;;;;;;7.24;67.21;102256.31;5003814;28;4792;-77
2023/04/02 14:41:11;;;;;;;;;;;;;;;7.33;66.70;102259.88;5002529;28;4697;-77
2023/04/02 14:44:03;;;;;;;;;;;;;;;7.32;66.86;102263.53;4999345;28;4849;-78
2023/04/02 14:46:56;;;;;;;;;;;;;;;7.38;66.72;102265.63;5003972;28;4922;-76
2023/04/02 14:49:48;;;;;;;;;;;;;;;7.36;66.83;102266.78;5002717;28;4587;-79
2023/04/02 14:52:39;;;;;;;;;;;;;;;7.33;67.03;102269.78;5007510;28;4620;-77
2023/04/02 14:55:31;;;;;;;;;;;;;;;7.41;66.91;102269.81;4999740;28;4737;-78
2023/04/02 14:58:23;;;;;;;;;;;;;;;7.37;66.91;102280.00;4999256;28;4602;-78
2023/04/02 15:01:15;;;;;;;;;;;;;;;7.36;67.30;102277.50;4999953;28;4682;-77
2023/04/02 15:04:07;;;;;;;;;;;;;;;7.41;67.61;102278.72;5004018;28;4761;-78
2023/04/02 15:06:58;;;;;;;;;;;;;;;7.41;67.64;102289.44;5003231;28;4552;-76